createdAt,value
2019-02-04T00:05:09.839Z,28
2019-02-04T00:10:32.508Z,30.299999
2019-02-04T00:15:56.136Z,28.4
2019-02-04T00:21:19.249Z,27.9
2019-02-04T00:26:51.232Z,30.4
2019-02-04T00:32:05.796Z,31.4
2019-02-04T00:37:28.537Z,29.4
2019-02-04T00:42:51.185Z,30
2019-02-04T00:48:13.837Z,31.200001
2019-02-04T00:53:36.943Z,30
2019-02-04T00:58:59.757Z,31.799999
2019-02-04T01:04:22.596Z,30.799999
2019-02-04T01:09:45.421Z,41.700001
2019-02-04T01:15:08.063Z,38.799999
2019-02-04T01:20:30.771Z,33.200001
2019-02-04T01:25:53.436Z,36
2019-02-04T01:31:16.113Z,39.400002
2019-02-04T01:36:39.213Z,32.599998
2019-02-04T01:42:02.279Z,38.900002
2019-02-04T01:47:25.778Z,36.799999
2019-02-04T01:52:48.469Z,39
2019-02-04T01:58:11.291Z,38.700001
2019-02-04T02:03:33.944Z,45.400002
2019-02-04T02:08:56.892Z,39.299999
2019-02-04T02:14:19.987Z,38.799999
2019-02-04T02:19:42.674Z,40.700001
2019-02-04T02:25:06.007Z,39.700001
2019-02-04T02:30:28.674Z,42.200001
2019-02-04T02:35:51.358Z,37.299999
2019-02-04T02:41:14.060Z,32.799999
2019-02-04T02:46:36.784Z,46.400002
2019-02-04T02:51:59.674Z,43.200001
2019-02-04T02:57:22.806Z,39.799999
2019-02-04T03:02:45.962Z,42.099998
2019-02-04T03:08:08.624Z,46.700001
2019-02-04T03:13:31.363Z,57.099998
2019-02-04T03:18:54.434Z,57.599998
2019-02-04T03:24:17.395Z,55.799999
2019-02-04T03:29:40.193Z,54.099998
2019-02-04T03:35:02.929Z,56.099998
2019-02-04T03:40:26.556Z,66.199997
2019-02-04T03:45:49.276Z,59.799999
2019-02-04T03:51:12.102Z,64.199997
2019-02-04T03:56:34.876Z,68.300003
2019-02-04T04:01:57.619Z,77.300003
2019-02-04T04:07:21.408Z,71
2019-02-04T04:12:44.865Z,81.099998
2019-02-04T04:18:15.289Z,87.300003
2019-02-04T04:23:31.395Z,92
2019-02-04T04:28:54.871Z,96.699997
2019-02-04T04:34:17.797Z,98.400002
2019-02-04T04:39:40.559Z,101.5
2019-02-04T04:45:03.422Z,100.59999
2019-02-04T04:50:26.290Z,113.3
2019-02-04T04:55:48.991Z,109.5
2019-02-04T05:01:12.038Z,98.599998
2019-02-04T05:06:34.763Z,88.699997
2019-02-04T05:11:58.323Z,85.199997
2019-02-04T05:17:21.597Z,68.699997
2019-02-04T05:22:44.868Z,67.300003
2019-02-04T05:28:08.024Z,69.300003
2019-02-04T05:33:30.726Z,61.099998
2019-02-04T05:38:53.441Z,66.800003
2019-02-04T05:44:16.658Z,55
2019-02-04T05:49:48.643Z,61.700001
2019-02-04T05:55:11.656Z,66.400002
2019-02-04T06:00:46.202Z,71
2019-02-04T06:06:21.180Z,71.300003
2019-02-04T06:11:53.639Z,76.5
2019-02-04T06:17:16.350Z,78.300003
2019-02-04T06:22:39.170Z,77.300003
2019-02-04T06:28:11.514Z,73.300003
2019-02-04T06:33:43.599Z,81.599998
2019-02-04T06:39:15.382Z,84.199997
2019-02-04T06:44:38.137Z,77.099998
2019-02-04T06:50:01.077Z,103.5
2019-02-04T06:55:33.702Z,92.400002
2019-02-04T07:01:09.004Z,79.599998
2019-02-04T07:06:43.575Z,100.9
2019-02-04T07:12:07.049Z,100.19999
2019-02-04T07:17:39.044Z,104.3
2019-02-04T07:23:10.855Z,98.900002
2019-02-04T07:28:44.490Z,112.59999
2019-02-04T07:34:17.240Z,103.69999
2019-02-04T07:39:50.153Z,93.800003
2019-02-04T07:45:12.972Z,98.5
2019-02-04T07:50:45.428Z,95
2019-02-04T07:56:19.481Z,91.400002
2019-02-04T08:01:51.426Z,93
2019-02-04T08:07:24.929Z,95
2019-02-04T08:13:01.231Z,86.900002
2019-02-04T08:18:52.057Z,77
2019-02-04T08:24:26.160Z,73.900002
2019-02-04T08:30:00.351Z,71.5
2019-02-04T08:35:33.295Z,64.400002
2019-02-04T08:41:06.346Z,59.599998
2019-02-04T08:46:39.500Z,56.5
2019-02-04T08:52:12.399Z,52.599998
2019-02-04T08:57:44.658Z,39.400002
2019-02-04T09:03:16.315Z,35.799999
2019-02-04T09:08:48.018Z,36.5
2019-02-04T09:14:19.747Z,30.4
2019-02-04T09:19:51.996Z,32.099998
2019-02-04T09:25:14.798Z,25.9
2019-02-04T09:30:38.466Z,22
2019-02-04T09:36:01.192Z,24.9
2019-02-04T09:41:23.941Z,21.1
2019-02-04T09:46:46.881Z,24
2019-02-04T09:52:09.640Z,22.200001
2019-02-04T09:57:32.799Z,18.9
2019-02-04T10:02:55.523Z,19.5
2019-02-04T10:08:18.205Z,18.200001
2019-02-04T10:13:41.861Z,18.6
2019-02-04T10:19:05.379Z,17.6
2019-02-04T10:24:28.918Z,15.8
2019-02-04T10:29:51.647Z,15.2
2019-02-04T10:35:16.733Z,16.200001
2019-02-04T10:40:38.344Z,16.6
2019-02-04T10:46:01.294Z,15.5
2019-02-04T10:51:26.204Z,13.1
2019-02-04T10:56:50.046Z,15.8
2019-02-04T11:02:12.827Z,14.6
2019-02-04T11:07:35.593Z,14
2019-02-04T11:12:58.571Z,14.3
2019-02-04T11:18:21.314Z,12.4
2019-02-04T11:23:44.136Z,12
2019-02-04T11:29:07.006Z,11.6
2019-02-04T11:34:29.766Z,12.9
2019-02-04T11:39:52.420Z,12
2019-02-04T11:45:15.189Z,11.1
2019-02-04T11:50:38.676Z,10.9
2019-02-04T11:56:01.712Z,12.5
2019-02-04T12:01:24.388Z,11.4
2019-02-04T12:06:47.426Z,11.2
2019-02-04T12:12:10.372Z,9.3
2019-02-04T12:17:33.075Z,11.4
2019-02-04T12:22:55.786Z,10.5
2019-02-04T12:28:18.908Z,9.6
2019-02-04T12:33:42.651Z,10.5
2019-02-04T12:39:05.472Z,10.8
2019-02-04T12:44:29.062Z,10.6
2019-02-04T12:49:51.974Z,9.5
2019-02-04T12:55:15.314Z,9.1
2019-02-04T13:00:37.803Z,10.9
2019-02-04T13:06:00.471Z,14
2019-02-04T13:11:23.806Z,14.4
2019-02-04T13:16:46.564Z,10.7
2019-02-04T13:22:10.052Z,17.1
2019-02-04T13:27:32.787Z,13.5
2019-02-04T13:32:55.581Z,20.5
2019-02-04T13:38:20.020Z,35.799999
2019-02-04T13:43:43.457Z,30.700001
2019-02-04T13:49:06.217Z,33.299999
2019-02-04T13:54:28.916Z,28.200001
2019-02-04T13:59:51.894Z,18.4
2019-02-04T14:05:14.587Z,9.7
2019-02-04T14:10:37.303Z,11.6
2019-02-04T14:16:00.015Z,12.5
2019-02-04T14:21:22.927Z,11.5
2019-02-04T14:26:45.715Z,12
2019-02-04T14:32:08.329Z,11.1
2019-02-04T14:37:31.171Z,9.9
2019-02-04T14:42:53.881Z,9.9
2019-02-04T14:48:17.075Z,8.6
2019-02-04T14:53:39.743Z,8.1
2019-02-04T14:59:02.511Z,7.8
2019-02-04T15:04:25.149Z,7.1
2019-02-04T15:09:48.023Z,8.8
2019-02-04T15:15:10.727Z,11.2
2019-02-04T15:20:33.392Z,9.5
2019-02-04T15:25:56.100Z,9.4
2019-02-04T15:31:18.881Z,8.5
2019-02-04T15:36:41.629Z,8.2
2019-02-04T15:42:04.357Z,8.4
2019-02-04T15:47:28.172Z,11
2019-02-04T15:52:50.872Z,11.2
2019-02-04T15:58:14.075Z,9.6
2019-02-04T16:03:36.752Z,9.1
2019-02-04T16:08:59.536Z,8.6
2019-02-04T16:14:23.802Z,10.3
2019-02-04T16:19:46.814Z,8.6
2019-02-04T16:25:09.457Z,8.3
2019-02-04T16:30:32.153Z,10.7
2019-02-04T16:35:54.917Z,10.2
2019-02-04T16:41:17.650Z,10.5
2019-02-04T16:46:41.069Z,6.9
2019-02-04T16:52:03.810Z,7.7
2019-02-04T16:57:27.036Z,8.6
2019-02-04T17:02:50.155Z,8.2
2019-02-04T17:08:12.932Z,9.4
2019-02-04T17:13:37.793Z,7.7
2019-02-04T17:19:00.692Z,8.2
2019-02-04T17:24:23.540Z,9.2
2019-02-04T17:29:46.285Z,7.5
2019-02-04T17:35:10.214Z,8.6
2019-02-04T17:40:32.914Z,9.6
2019-02-04T17:45:55.754Z,8
2019-02-04T17:51:18.678Z,8.5
2019-02-04T17:56:41.431Z,7.9
2019-02-04T18:02:04.478Z,10
2019-02-04T18:07:28.234Z,9.3
2019-02-04T18:12:51.346Z,10.4
2019-02-04T18:18:14.067Z,6.9
2019-02-04T18:23:45.484Z,7.7
2019-02-04T18:29:00.422Z,8.4
2019-02-04T18:34:24.053Z,6.1
2019-02-04T18:39:47.417Z,5.8
2019-02-04T18:45:10.133Z,6.9
2019-02-04T18:50:33.031Z,7.4
2019-02-04T18:55:55.877Z,6.2
2019-02-04T19:01:18.991Z,6.8
2019-02-04T19:06:47.530Z,6.6
2019-02-04T19:12:05.871Z,7.3
2019-02-04T19:17:28.645Z,7.1
2019-02-04T19:22:52.488Z,8
2019-02-04T19:28:24.460Z,5.2
2019-02-04T19:33:47.150Z,7.2
2019-02-04T19:39:10.042Z,6.8
2019-02-04T19:44:32.868Z,7.3
2019-02-04T19:49:55.624Z,5.2
2019-02-04T19:55:18.371Z,5.2
2019-02-04T20:00:41.064Z,6.4
2019-02-04T20:06:05.156Z,7.6
2019-02-04T20:11:27.890Z,7.2
2019-02-04T20:16:50.621Z,6.8
2019-02-04T20:22:13.266Z,5.3
2019-02-04T20:27:36.008Z,6.2
2019-02-04T20:32:58.749Z,5.5
2019-02-04T20:38:22.364Z,4.7
2019-02-04T20:43:46.332Z,7.7
2019-02-04T20:49:09.157Z,5.1
2019-02-04T20:54:32.067Z,6
2019-02-04T20:59:56.355Z,5.4
2019-02-04T21:05:19.033Z,5
2019-02-04T21:10:41.973Z,5.3
2019-02-04T21:16:04.728Z,5.9
2019-02-04T21:21:27.478Z,5.8
2019-02-04T21:26:50.212Z,7.1
2019-02-04T21:32:13.216Z,7.1
2019-02-04T21:37:36.002Z,6.8
2019-02-04T21:42:58.872Z,5.6
2019-02-04T21:48:21.840Z,5.8
2019-02-04T21:53:44.794Z,6.6
2019-02-04T21:59:07.808Z,6.5
2019-02-04T22:04:30.539Z,7.4
2019-02-04T22:09:53.808Z,7.3
2019-02-04T22:15:16.651Z,6.1
2019-02-04T22:20:39.337Z,6.9
2019-02-04T22:26:02.059Z,7.1
2019-02-04T22:31:24.978Z,9.5
2019-02-04T22:36:47.702Z,7.5
2019-02-04T22:42:10.471Z,6.8
2019-02-04T22:47:33.858Z,7.3
2019-02-04T22:52:56.623Z,7.1
2019-02-04T22:58:20.329Z,7.5
2019-02-04T23:03:43.908Z,8
2019-02-04T23:09:07.673Z,8.5
2019-02-04T23:14:29.796Z,8.4
2019-02-04T23:19:52.511Z,8
2019-02-04T23:25:16.135Z,8.3
2019-02-04T23:30:38.857Z,8.9
2019-02-04T23:36:01.550Z,8.7
2019-02-04T23:41:24.366Z,8.8
2019-02-04T23:46:47.053Z,9.6
2019-02-04T23:52:09.841Z,9.3
2019-02-04T23:57:32.650Z,7.7
